sensor_id;sensor_type;location;lat;lon;timestamp;temperature;humidity
29939;DHT22;16799;50.844;5.304;2022-09-03T00:07:18;18.70;59.20
29939;DHT22;16799;50.844;5.304;2022-09-03T00:09:53;18.70;59.60
29939;DHT22;16799;50.844;5.304;2022-09-03T00:12:24;18.70;59.70
29939;DHT22;16799;50.844;5.304;2022-09-03T00:14:56;18.60;60.00
29939;DHT22;16799;50.844;5.304;2022-09-03T00:17:29;18.60;60.00
29939;DHT22;16799;50.844;5.304;2022-09-03T00:20:09;18.60;60.50
29939;DHT22;16799;50.844;5.304;2022-09-03T00:22:39;18.60;60.80
29939;DHT22;16799;50.844;5.304;2022-09-03T00:25:10;18.60;61.20
29939;DHT22;16799;50.844;5.304;2022-09-03T00:27:39;18.60;61.40
29939;DHT22;16799;50.844;5.304;2022-09-03T00:30:12;18.60;61.80
29939;DHT22;16799;50.844;5.304;2022-09-03T00:33:12;18.50;62.10
29939;DHT22;16799;50.844;5.304;2022-09-03T00:38:28;18.40;63.30
29939;DHT22;16799;50.844;5.304;2022-09-03T00:41:14;18.40;63.60
29939;DHT22;16799;50.844;5.304;2022-09-03T00:50:02;18.40;64.30
29939;DHT22;16799;50.844;5.304;2022-09-03T00:56:34;18.40;65.70
29939;DHT22;16799;50.844;5.304;2022-09-03T01:00:54;18.60;65.30
29939;DHT22;16799;50.844;5.304;2022-09-03T01:03:47;18.50;65.00
29939;DHT22;16799;50.844;5.304;2022-09-03T01:06:18;18.60;66.10
29939;DHT22;16799;50.844;5.304;2022-09-03T01:12:05;18.60;67.40
29939;DHT22;16799;50.844;5.304;2022-09-03T01:31:22;18.70;67.20
29939;DHT22;16799;50.844;5.304;2022-09-03T01:37:07;18.70;68.50
29939;DHT22;16799;50.844;5.304;2022-09-03T01:42:34;18.70;70.40
29939;DHT22;16799;50.844;5.304;2022-09-03T01:59:26;18.90;72.20
29939;DHT22;16799;50.844;5.304;2022-09-03T02:02:02;18.80;71.40
29939;DHT22;16799;50.844;5.304;2022-09-03T02:04:31;18.70;72.60
29939;DHT22;16799;50.844;5.304;2022-09-03T02:06:58;18.70;72.00
29939;DHT22;16799;50.844;5.304;2022-09-03T02:09:25;18.80;71.50
29939;DHT22;16799;50.844;5.304;2022-09-03T02:12:14;18.80;71.90
29939;DHT22;16799;50.844;5.304;2022-09-03T02:14:41;18.90;73.80
29939;DHT22;16799;50.844;5.304;2022-09-03T02:17:07;18.70;73.60
29939;DHT22;16799;50.844;5.304;2022-09-03T02:19:34;18.70;71.90
29939;DHT22;16799;50.844;5.304;2022-09-03T02:22:02;18.50;73.60
29939;DHT22;16799;50.844;5.304;2022-09-03T02:24:28;18.10;77.00
29939;DHT22;16799;50.844;5.304;2022-09-03T02:26:55;18.10;76.90
29939;DHT22;16799;50.844;5.304;2022-09-03T02:29:21;18.30;77.10
29939;DHT22;16799;50.844;5.304;2022-09-03T02:31:46;18.50;77.80
29939;DHT22;16799;50.844;5.304;2022-09-03T02:34:12;18.60;78.30
29939;DHT22;16799;50.844;5.304;2022-09-03T02:36:41;18.60;77.30
29939;DHT22;16799;50.844;5.304;2022-09-03T02:39:07;18.70;78.10
29939;DHT22;16799;50.844;5.304;2022-09-03T02:41:33;18.70;77.50
29939;DHT22;16799;50.844;5.304;2022-09-03T02:44:28;18.70;75.70
29939;DHT22;16799;50.844;5.304;2022-09-03T02:47:05;18.70;76.70
29939;DHT22;16799;50.844;5.304;2022-09-03T02:49:31;18.70;76.20
29939;DHT22;16799;50.844;5.304;2022-09-03T02:52:03;18.80;76.40
29939;DHT22;16799;50.844;5.304;2022-09-03T02:54:35;18.80;76.10
29939;DHT22;16799;50.844;5.304;2022-09-03T02:57:05;18.80;76.40
29939;DHT22;16799;50.844;5.304;2022-09-03T02:59:30;18.80;75.20
29939;DHT22;16799;50.844;5.304;2022-09-03T03:01:56;18.80;77.60
29939;DHT22;16799;50.844;5.304;2022-09-03T03:04:22;18.80;78.10
29939;DHT22;16799;50.844;5.304;2022-09-03T03:06:48;18.70;77.40
29939;DHT22;16799;50.844;5.304;2022-09-03T03:09:15;18.80;76.90
29939;DHT22;16799;50.844;5.304;2022-09-03T03:11:41;18.70;77.60
29939;DHT22;16799;50.844;5.304;2022-09-03T03:14:07;18.70;77.40
29939;DHT22;16799;50.844;5.304;2022-09-03T03:16:33;18.80;78.20
29939;DHT22;16799;50.844;5.304;2022-09-03T03:18:59;18.80;78.90
29939;DHT22;16799;50.844;5.304;2022-09-03T03:21:25;18.80;76.60
29939;DHT22;16799;50.844;5.304;2022-09-03T03:23:50;18.90;76.10
29939;DHT22;16799;50.844;5.304;2022-09-03T03:26:18;18.80;77.60
29939;DHT22;16799;50.844;5.304;2022-09-03T03:28:45;18.80;78.20
29939;DHT22;16799;50.844;5.304;2022-09-03T03:31:18;18.80;81.00
29939;DHT22;16799;50.844;5.304;2022-09-03T03:33:53;18.90;81.00
29939;DHT22;16799;50.844;5.304;2022-09-03T03:36:21;18.90;80.90
29939;DHT22;16799;50.844;5.304;2022-09-03T03:38:46;18.70;81.10
29939;DHT22;16799;50.844;5.304;2022-09-03T03:41:16;18.80;80.00
29939;DHT22;16799;50.844;5.304;2022-09-03T03:43:43;18.80;78.80
29939;DHT22;16799;50.844;5.304;2022-09-03T03:46:09;18.80;78.30
29939;DHT22;16799;50.844;5.304;2022-09-03T03:48:36;18.80;80.10
29939;DHT22;16799;50.844;5.304;2022-09-03T03:51:05;18.70;80.30
29939;DHT22;16799;50.844;5.304;2022-09-03T03:53:32;18.70;80.50
29939;DHT22;16799;50.844;5.304;2022-09-03T03:56:00;18.70;79.80
29939;DHT22;16799;50.844;5.304;2022-09-03T03:58:28;18.70;79.10
29939;DHT22;16799;50.844;5.304;2022-09-03T04:00:54;18.80;78.60
29939;DHT22;16799;50.844;5.304;2022-09-03T04:03:20;18.70;79.40
29939;DHT22;16799;50.844;5.304;2022-09-03T04:05:59;18.80;77.50
29939;DHT22;16799;50.844;5.304;2022-09-03T04:08:26;18.90;78.20
29939;DHT22;16799;50.844;5.304;2022-09-03T04:10:52;18.80;79.70
29939;DHT22;16799;50.844;5.304;2022-09-03T04:13:18;18.80;80.50
29939;DHT22;16799;50.844;5.304;2022-09-03T04:15:44;18.80;81.30
29939;DHT22;16799;50.844;5.304;2022-09-03T04:18:09;18.70;80.70
29939;DHT22;16799;50.844;5.304;2022-09-03T04:20:35;18.80;82.40
29939;DHT22;16799;50.844;5.304;2022-09-03T04:23:01;18.70;83.70
29939;DHT22;16799;50.844;5.304;2022-09-03T04:25:27;18.70;82.40
29939;DHT22;16799;50.844;5.304;2022-09-03T04:27:53;18.70;81.60
29939;DHT22;16799;50.844;5.304;2022-09-03T04:30:19;18.80;81.80
29939;DHT22;16799;50.844;5.304;2022-09-03T04:32:45;18.80;82.70
29939;DHT22;16799;50.844;5.304;2022-09-03T04:35:25;18.80;80.30
29939;DHT22;16799;50.844;5.304;2022-09-03T04:37:57;18.90;80.00
29939;DHT22;16799;50.844;5.304;2022-09-03T04:40:23;18.90;79.40
29939;DHT22;16799;50.844;5.304;2022-09-03T04:42:49;18.80;81.10
29939;DHT22;16799;50.844;5.304;2022-09-03T04:45:15;18.80;81.50
29939;DHT22;16799;50.844;5.304;2022-09-03T04:47:44;18.70;82.50
29939;DHT22;16799;50.844;5.304;2022-09-03T04:50:11;18.60;83.60
29939;DHT22;16799;50.844;5.304;2022-09-03T04:52:37;18.70;84.00
29939;DHT22;16799;50.844;5.304;2022-09-03T04:55:04;18.70;85.50
29939;DHT22;16799;50.844;5.304;2022-09-03T04:57:29;18.60;86.60
29939;DHT22;16799;50.844;5.304;2022-09-03T04:59:59;18.60;86.10
29939;DHT22;16799;50.844;5.304;2022-09-03T05:02:25;18.60;86.20
29939;DHT22;16799;50.844;5.304;2022-09-03T05:04:50;18.60;86.40
29939;DHT22;16799;50.844;5.304;2022-09-03T05:07:17;18.70;86.30
29939;DHT22;16799;50.844;5.304;2022-09-03T05:09:44;18.80;85.10
29939;DHT22;16799;50.844;5.304;2022-09-03T05:12:10;18.80;84.80
29939;DHT22;16799;50.844;5.304;2022-09-03T05:14:36;18.70;85.70
29939;DHT22;16799;50.844;5.304;2022-09-03T05:17:01;18.70;86.60
29939;DHT22;16799;50.844;5.304;2022-09-03T05:19:27;18.70;86.40
29939;DHT22;16799;50.844;5.304;2022-09-03T05:21:53;18.80;85.70
29939;DHT22;16799;50.844;5.304;2022-09-03T05:24:18;18.90;84.30
29939;DHT22;16799;50.844;5.304;2022-09-03T05:26:44;19.00;82.40
29939;DHT22;16799;50.844;5.304;2022-09-03T05:29:10;19.10;81.80
29939;DHT22;16799;50.844;5.304;2022-09-03T05:31:37;19.00;82.40
29939;DHT22;16799;50.844;5.304;2022-09-03T05:34:04;19.00;82.30
29939;DHT22;16799;50.844;5.304;2022-09-03T05:36:33;19.10;81.80
29939;DHT22;16799;50.844;5.304;2022-09-03T05:38:59;19.00;81.50
29939;DHT22;16799;50.844;5.304;2022-09-03T05:41:26;19.00;83.20
29939;DHT22;16799;50.844;5.304;2022-09-03T05:43:53;19.10;82.80
29939;DHT22;16799;50.844;5.304;2022-09-03T05:46:28;19.30;81.10
29939;DHT22;16799;50.844;5.304;2022-09-03T05:48:58;19.30;80.80
29939;DHT22;16799;50.844;5.304;2022-09-03T05:51:25;19.30;81.60
29939;DHT22;16799;50.844;5.304;2022-09-03T05:53:50;19.50;85.40
29939;DHT22;16799;50.844;5.304;2022-09-03T05:56:19;19.50;81.80
29939;DHT22;16799;50.844;5.304;2022-09-03T05:58:47;19.50;82.20
29939;DHT22;16799;50.844;5.304;2022-09-03T06:01:19;19.50;81.20
29939;DHT22;16799;50.844;5.304;2022-09-03T06:03:47;19.60;81.50
29939;DHT22;16799;50.844;5.304;2022-09-03T06:06:17;19.60;79.90
29939;DHT22;16799;50.844;5.304;2022-09-03T06:08:43;19.40;80.20
29939;DHT22;16799;50.844;5.304;2022-09-03T06:11:09;19.50;81.50
29939;DHT22;16799;50.844;5.304;2022-09-03T06:13:35;19.40;80.70
29939;DHT22;16799;50.844;5.304;2022-09-03T06:16:04;19.50;82.20
29939;DHT22;16799;50.844;5.304;2022-09-03T06:18:30;19.40;82.80
29939;DHT22;16799;50.844;5.304;2022-09-03T06:21:01;19.40;82.60
29939;DHT22;16799;50.844;5.304;2022-09-03T06:23:28;19.40;80.90
29939;DHT22;16799;50.844;5.304;2022-09-03T06:26:11;19.40;79.50
29939;DHT22;16799;50.844;5.304;2022-09-03T06:28:39;19.40;80.00
29939;DHT22;16799;50.844;5.304;2022-09-03T06:31:09;19.30;79.90
29939;DHT22;16799;50.844;5.304;2022-09-03T06:33:37;19.40;80.30
29939;DHT22;16799;50.844;5.304;2022-09-03T06:36:05;19.40;80.00
29939;DHT22;16799;50.844;5.304;2022-09-03T06:38:33;19.50;80.60
29939;DHT22;16799;50.844;5.304;2022-09-03T06:41:14;19.70;81.10
29939;DHT22;16799;50.844;5.304;2022-09-03T06:43:48;20.00;79.20
29939;DHT22;16799;50.844;5.304;2022-09-03T06:46:17;20.30;77.30
29939;DHT22;16799;50.844;5.304;2022-09-03T06:48:43;20.40;77.20
29939;DHT22;16799;50.844;5.304;2022-09-03T06:51:11;20.60;75.70
29939;DHT22;16799;50.844;5.304;2022-09-03T06:53:39;21.00;75.30
29939;DHT22;16799;50.844;5.304;2022-09-03T06:56:06;21.30;72.50
29939;DHT22;16799;50.844;5.304;2022-09-03T06:58:35;21.60;71.30
29939;DHT22;16799;50.844;5.304;2022-09-03T07:01:07;22.10;70.80
29939;DHT22;16799;50.844;5.304;2022-09-03T07:03:34;22.40;70.10
29939;DHT22;16799;50.844;5.304;2022-09-03T07:06:05;22.80;67.50
29939;DHT22;16799;50.844;5.304;2022-09-03T07:08:31;23.00;65.50
29939;DHT22;16799;50.844;5.304;2022-09-03T07:10:59;23.20;64.50
29939;DHT22;16799;50.844;5.304;2022-09-03T07:13:26;23.40;64.10
29939;DHT22;16799;50.844;5.304;2022-09-03T07:16:02;23.60;63.40
29939;DHT22;16799;50.844;5.304;2022-09-03T07:18:30;23.90;63.20
29939;DHT22;16799;50.844;5.304;2022-09-03T07:21:00;24.10;62.40
29939;DHT22;16799;50.844;5.304;2022-09-03T07:23:27;24.30;61.80
29939;DHT22;16799;50.844;5.304;2022-09-03T07:25:55;24.40;61.90
29939;DHT22;16799;50.844;5.304;2022-09-03T07:28:21;24.50;62.50
29939;DHT22;16799;50.844;5.304;2022-09-03T07:30:47;24.70;61.80
29939;DHT22;16799;50.844;5.304;2022-09-03T07:33:13;24.80;61.60
29939;DHT22;16799;50.844;5.304;2022-09-03T07:35:38;24.90;62.00
29939;DHT22;16799;50.844;5.304;2022-09-03T07:38:04;24.80;61.70
29939;DHT22;16799;50.844;5.304;2022-09-03T07:40:30;24.60;62.30
29939;DHT22;16799;50.844;5.304;2022-09-03T07:42:56;24.40;62.20
29939;DHT22;16799;50.844;5.304;2022-09-03T07:45:26;24.20;62.70
29939;DHT22;16799;50.844;5.304;2022-09-03T07:47:53;23.90;63.00
29939;DHT22;16799;50.844;5.304;2022-09-03T07:50:18;23.80;63.70
29939;DHT22;16799;50.844;5.304;2022-09-03T07:52:45;23.80;64.40
29939;DHT22;16799;50.844;5.304;2022-09-03T07:55:11;24.00;64.60
29939;DHT22;16799;50.844;5.304;2022-09-03T07:57:37;24.10;64.20
29939;DHT22;16799;50.844;5.304;2022-09-03T08:00:03;24.50;64.10
29939;DHT22;16799;50.844;5.304;2022-09-03T08:02:28;24.60;62.80
29939;DHT22;16799;50.844;5.304;2022-09-03T08:04:54;24.90;62.50
29939;DHT22;16799;50.844;5.304;2022-09-03T08:07:20;25.00;61.60
29939;DHT22;16799;50.844;5.304;2022-09-03T08:09:45;24.90;62.20
29939;DHT22;16799;50.844;5.304;2022-09-03T08:12:11;25.00;63.10
29939;DHT22;16799;50.844;5.304;2022-09-03T08:14:36;25.00;63.80
29939;DHT22;16799;50.844;5.304;2022-09-03T08:17:02;25.10;65.40
29939;DHT22;16799;50.844;5.304;2022-09-03T08:19:28;24.70;66.80
29939;DHT22;16799;50.844;5.304;2022-09-03T08:21:53;24.60;67.50
29939;DHT22;16799;50.844;5.304;2022-09-03T08:24:19;24.60;68.90
29939;DHT22;16799;50.844;5.304;2022-09-03T08:26:50;24.10;69.20
29939;DHT22;16799;50.844;5.304;2022-09-03T08:29:16;23.80;71.80
29939;DHT22;16799;50.844;5.304;2022-09-03T08:31:41;23.90;73.60
29939;DHT22;16799;50.844;5.304;2022-09-03T08:34:08;23.70;74.80
29939;DHT22;16799;50.844;5.304;2022-09-03T08:36:37;23.70;76.20
29939;DHT22;16799;50.844;5.304;2022-09-03T08:39:05;24.00;76.80
29939;DHT22;16799;50.844;5.304;2022-09-03T08:44:39;24.90;75.30
29939;DHT22;16799;50.844;5.304;2022-09-03T08:47:10;25.20;74.20
29939;DHT22;16799;50.844;5.304;2022-09-03T08:50:11;25.50;73.80
29939;DHT22;16799;50.844;5.304;2022-09-03T08:52:55;25.70;72.50
29939;DHT22;16799;50.844;5.304;2022-09-03T08:55:30;25.80;72.30
29939;DHT22;16799;50.844;5.304;2022-09-03T09:09:22;25.60;74.10
29939;DHT22;16799;50.844;5.304;2022-09-03T09:17:24;26.30;72.20
29939;DHT22;16799;50.844;5.304;2022-09-03T09:20:04;26.60;71.20
29939;DHT22;16799;50.844;5.304;2022-09-03T09:22:38;26.10;71.60
29939;DHT22;16799;50.844;5.304;2022-09-03T09:25:18;26.20;72.50
29939;DHT22;16799;50.844;5.304;2022-09-03T09:27:51;26.40;71.60
29939;DHT22;16799;50.844;5.304;2022-09-03T09:30:17;26.40;70.80
29939;DHT22;16799;50.844;5.304;2022-09-03T09:32:43;26.30;70.60
29939;DHT22;16799;50.844;5.304;2022-09-03T09:35:11;26.10;71.70
29939;DHT22;16799;50.844;5.304;2022-09-03T09:37:52;26.20;71.30
29939;DHT22;16799;50.844;5.304;2022-09-03T09:40:37;26.20;72.00
29939;DHT22;16799;50.844;5.304;2022-09-03T09:43:14;26.10;72.00
29939;DHT22;16799;50.844;5.304;2022-09-03T09:45:43;26.20;71.60
29939;DHT22;16799;50.844;5.304;2022-09-03T09:48:25;26.20;72.20
29939;DHT22;16799;50.844;5.304;2022-09-03T09:51:08;26.30;72.30
29939;DHT22;16799;50.844;5.304;2022-09-03T09:53:35;26.30;72.20
29939;DHT22;16799;50.844;5.304;2022-09-03T09:56:01;26.30;72.80
29939;DHT22;16799;50.844;5.304;2022-09-03T09:58:28;26.60;71.60
29939;DHT22;16799;50.844;5.304;2022-09-03T10:01:02;26.60;71.50
29939;DHT22;16799;50.844;5.304;2022-09-03T10:03:32;27.00;71.30
29939;DHT22;16799;50.844;5.304;2022-09-03T10:06:06;27.10;71.20
29939;DHT22;16799;50.844;5.304;2022-09-03T10:09:04;27.60;69.20
29939;DHT22;16799;50.844;5.304;2022-09-03T10:11:32;28.00;68.60
29939;DHT22;16799;50.844;5.304;2022-09-03T10:13:59;28.00;67.40
29939;DHT22;16799;50.844;5.304;2022-09-03T10:16:32;27.30;68.80
29939;DHT22;16799;50.844;5.304;2022-09-03T10:21:46;27.70;68.60
29939;DHT22;16799;50.844;5.304;2022-09-03T10:24:36;28.00;68.50
29939;DHT22;16799;50.844;5.304;2022-09-03T10:27:09;29.00;66.50
29939;DHT22;16799;50.844;5.304;2022-09-03T10:29:36;28.80;65.70
29939;DHT22;16799;50.844;5.304;2022-09-03T10:40:49;33.50;56.30
29939;DHT22;16799;50.844;5.304;2022-09-03T10:43:40;34.60;54.20
29939;DHT22;16799;50.844;5.304;2022-09-03T10:46:15;35.00;53.20
29939;DHT22;16799;50.844;5.304;2022-09-03T10:51:40;34.90;52.40
29939;DHT22;16799;50.844;5.304;2022-09-03T10:57:30;34.50;53.10
29939;DHT22;16799;50.844;5.304;2022-09-03T11:00:11;35.20;51.30
29939;DHT22;16799;50.844;5.304;2022-09-03T11:05:40;35.60;50.80
29939;DHT22;16799;50.844;5.304;2022-09-03T11:08:24;36.60;50.50
29939;DHT22;16799;50.844;5.304;2022-09-03T11:11:02;36.30;49.60
29939;DHT22;16799;50.844;5.304;2022-09-03T11:13:37;34.90;51.10
29939;DHT22;16799;50.844;5.304;2022-09-03T11:16:29;33.70;53.00
29939;DHT22;16799;50.844;5.304;2022-09-03T11:19:08;33.40;52.90
29939;DHT22;16799;50.844;5.304;2022-09-03T11:21:37;32.90;53.50
29939;DHT22;16799;50.844;5.304;2022-09-03T11:24:15;31.20;55.50
29939;DHT22;16799;50.844;5.304;2022-09-03T11:26:44;30.10;57.90
29939;DHT22;16799;50.844;5.304;2022-09-03T11:29:18;29.70;59.10
29939;DHT22;16799;50.844;5.304;2022-09-03T11:32:00;30.20;58.60
29939;DHT22;16799;50.844;5.304;2022-09-03T11:34:30;32.10;56.80
29939;DHT22;16799;50.844;5.304;2022-09-03T11:37:27;35.00;52.50
29939;DHT22;16799;50.844;5.304;2022-09-03T11:39:58;35.60;49.10
29939;DHT22;16799;50.844;5.304;2022-09-03T11:42:39;34.60;49.80
29939;DHT22;16799;50.844;5.304;2022-09-03T11:45:13;33.80;51.10
29939;DHT22;16799;50.844;5.304;2022-09-03T11:47:44;34.10;50.60
29939;DHT22;16799;50.844;5.304;2022-09-03T11:50:23;33.80;50.00
29939;DHT22;16799;50.844;5.304;2022-09-03T11:52:51;34.00;50.20
29939;DHT22;16799;50.844;5.304;2022-09-03T11:55:29;32.20;52.10
29939;DHT22;16799;50.844;5.304;2022-09-03T11:57:56;31.90;52.40
29939;DHT22;16799;50.844;5.304;2022-09-03T12:00:22;31.20;53.90
29939;DHT22;16799;50.844;5.304;2022-09-03T12:02:59;31.10;53.80
29939;DHT22;16799;50.844;5.304;2022-09-03T12:13:58;33.10;52.40
29939;DHT22;16799;50.844;5.304;2022-09-03T12:16:30;34.10;49.90
29939;DHT22;16799;50.844;5.304;2022-09-03T12:19:06;35.20;47.60
29939;DHT22;16799;50.844;5.304;2022-09-03T12:21:38;36.00;47.20
29939;DHT22;16799;50.844;5.304;2022-09-03T12:24:06;36.40;46.40
29939;DHT22;16799;50.844;5.304;2022-09-03T12:26:40;36.00;47.60
29939;DHT22;16799;50.844;5.304;2022-09-03T12:29:06;35.70;46.70
29939;DHT22;16799;50.844;5.304;2022-09-03T12:31:45;35.60;47.10
29939;DHT22;16799;50.844;5.304;2022-09-03T12:34:15;35.50;46.30
29939;DHT22;16799;50.844;5.304;2022-09-03T12:36:44;34.70;47.10
29939;DHT22;16799;50.844;5.304;2022-09-03T12:39:19;33.20;49.50
29939;DHT22;16799;50.844;5.304;2022-09-03T12:42:07;32.70;50.50
29939;DHT22;16799;50.844;5.304;2022-09-03T12:47:14;34.60;48.30
29939;DHT22;16799;50.844;5.304;2022-09-03T12:49:44;35.60;46.80
29939;DHT22;16799;50.844;5.304;2022-09-03T12:54:56;37.70;43.90
29939;DHT22;16799;50.844;5.304;2022-09-03T12:57:29;39.00;42.50
29939;DHT22;16799;50.844;5.304;2022-09-03T12:59:59;40.20;41.20
29939;DHT22;16799;50.844;5.304;2022-09-03T13:02:34;42.10;39.10
29939;DHT22;16799;50.844;5.304;2022-09-03T13:05:02;42.60;37.80
29939;DHT22;16799;50.844;5.304;2022-09-03T13:07:33;41.60;36.70
29939;DHT22;16799;50.844;5.304;2022-09-03T13:10:06;40.20;38.10
29939;DHT22;16799;50.844;5.304;2022-09-03T13:12:45;41.90;37.20
29939;DHT22;16799;50.844;5.304;2022-09-03T13:15:20;42.20;35.60
29939;DHT22;16799;50.844;5.304;2022-09-03T13:18:23;41.90;36.60
29939;DHT22;16799;50.844;5.304;2022-09-03T13:26:39;43.60;34.40
29939;DHT22;16799;50.844;5.304;2022-09-03T13:35:21;44.80;33.40
29939;DHT22;16799;50.844;5.304;2022-09-03T13:38:04;45.00;33.50
29939;DHT22;16799;50.844;5.304;2022-09-03T13:40:48;45.40;32.90
29939;DHT22;16799;50.844;5.304;2022-09-03T13:43:42;46.40;32.20
29939;DHT22;16799;50.844;5.304;2022-09-03T13:46:19;46.50;31.20
29939;DHT22;16799;50.844;5.304;2022-09-03T13:48:49;45.30;32.60
29939;DHT22;16799;50.844;5.304;2022-09-03T13:51:50;43.00;32.90
29939;DHT22;16799;50.844;5.304;2022-09-03T13:54:30;39.80;36.00
29939;DHT22;16799;50.844;5.304;2022-09-03T13:57:06;37.80;39.00
29939;DHT22;16799;50.844;5.304;2022-09-03T14:02:53;36.50;42.00
29939;DHT22;16799;50.844;5.304;2022-09-03T14:11:02;36.50;41.40
29939;DHT22;16799;50.844;5.304;2022-09-03T14:22:20;33.10;48.80
29939;DHT22;16799;50.844;5.304;2022-09-03T14:24:56;31.80;50.90
29939;DHT22;16799;50.844;5.304;2022-09-03T14:27:32;31.50;52.10
29939;DHT22;16799;50.844;5.304;2022-09-03T14:30:05;30.60;53.50
29939;DHT22;16799;50.844;5.304;2022-09-03T14:51:08;32.10;51.50
29939;DHT22;16799;50.844;5.304;2022-09-03T15:04:58;35.90;46.00
29939;DHT22;16799;50.844;5.304;2022-09-03T15:07:43;36.70;45.30
29939;DHT22;16799;50.844;5.304;2022-09-03T15:12:43;37.60;43.10
29939;DHT22;16799;50.844;5.304;2022-09-03T15:15:16;37.60;43.20
29939;DHT22;16799;50.844;5.304;2022-09-03T15:23:01;36.50;45.10
29939;DHT22;16799;50.844;5.304;2022-09-03T15:26:03;35.00;47.40
29939;DHT22;16799;50.844;5.304;2022-09-03T15:31:34;32.10;52.20
29939;DHT22;16799;50.844;5.304;2022-09-03T15:37:13;30.80;54.40
29939;DHT22;16799;50.844;5.304;2022-09-03T15:39:43;30.30;54.70
29939;DHT22;16799;50.844;5.304;2022-09-03T15:42:17;29.80;54.10
29939;DHT22;16799;50.844;5.304;2022-09-03T15:44:53;29.90;54.40
29939;DHT22;16799;50.844;5.304;2022-09-03T15:55:36;29.20;56.00
29939;DHT22;16799;50.844;5.304;2022-09-03T15:58:25;29.10;56.50
29939;DHT22;16799;50.844;5.304;2022-09-03T16:07:09;28.50;54.70
29939;DHT22;16799;50.844;5.304;2022-09-03T16:10:07;28.50;55.20
29939;DHT22;16799;50.844;5.304;2022-09-03T16:18:24;28.30;55.00
29939;DHT22;16799;50.844;5.304;2022-09-03T16:20:59;28.50;54.60
29939;DHT22;16799;50.844;5.304;2022-09-03T16:26:35;28.50;54.00
29939;DHT22;16799;50.844;5.304;2022-09-03T16:29:08;28.60;54.10
29939;DHT22;16799;50.844;5.304;2022-09-03T16:40:20;29.10;54.10
29939;DHT22;16799;50.844;5.304;2022-09-03T16:52:20;28.30;53.90
29939;DHT22;16799;50.844;5.304;2022-09-03T16:55:00;28.30;54.30
29939;DHT22;16799;50.844;5.304;2022-09-03T17:00:08;28.30;56.00
29939;DHT22;16799;50.844;5.304;2022-09-03T17:03:44;28.20;56.70
29939;DHT22;16799;50.844;5.304;2022-09-03T17:25:15;27.60;61.40
29939;DHT22;16799;50.844;5.304;2022-09-03T17:28:16;27.40;62.50
29939;DHT22;16799;50.844;5.304;2022-09-03T17:30:57;27.40;63.20
29939;DHT22;16799;50.844;5.304;2022-09-03T17:36:18;27.40;63.80
29939;DHT22;16799;50.844;5.304;2022-09-03T17:39:09;27.40;64.50
29939;DHT22;16799;50.844;5.304;2022-09-03T17:41:49;27.30;65.30
29939;DHT22;16799;50.844;5.304;2022-09-03T17:48:00;26.80;67.00
29939;DHT22;16799;50.844;5.304;2022-09-03T17:50:55;26.70;68.20
29939;DHT22;16799;50.844;5.304;2022-09-03T17:56:27;26.80;68.70
29939;DHT22;16799;50.844;5.304;2022-09-03T17:59:01;26.40;70.00
29939;DHT22;16799;50.844;5.304;2022-09-03T18:01:35;25.80;73.50
29939;DHT22;16799;50.844;5.304;2022-09-03T18:07:21;25.40;76.10
29939;DHT22;16799;50.844;5.304;2022-09-03T18:12:53;25.70;73.10
29939;DHT22;16799;50.844;5.304;2022-09-03T18:18:07;25.90;73.10
29939;DHT22;16799;50.844;5.304;2022-09-03T18:20:45;25.80;74.50
29939;DHT22;16799;50.844;5.304;2022-09-03T18:26:30;25.30;78.70
29939;DHT22;16799;50.844;5.304;2022-09-03T18:32:08;25.30;80.70
29939;DHT22;16799;50.844;5.304;2022-09-03T18:34:52;25.50;81.50
29939;DHT22;16799;50.844;5.304;2022-09-03T18:37:36;25.40;82.50
29939;DHT22;16799;50.844;5.304;2022-09-03T18:40:26;25.30;83.90
29939;DHT22;16799;50.844;5.304;2022-09-03T18:50:18;24.70;86.60
29939;DHT22;16799;50.844;5.304;2022-09-03T18:53:13;24.80;87.10
29939;DHT22;16799;50.844;5.304;2022-09-03T18:56:24;24.90;88.60
29939;DHT22;16799;50.844;5.304;2022-09-03T19:01:54;24.30;90.80
29939;DHT22;16799;50.844;5.304;2022-09-03T19:04:55;24.00;90.80
29939;DHT22;16799;50.844;5.304;2022-09-03T19:07:46;24.00;91.10
29939;DHT22;16799;50.844;5.304;2022-09-03T19:10:59;23.60;91.80
29939;DHT22;16799;50.844;5.304;2022-09-03T19:13:44;23.50;92.10
29939;DHT22;16799;50.844;5.304;2022-09-03T19:22:36;23.80;91.60
29939;DHT22;16799;50.844;5.304;2022-09-03T19:25:21;23.80;91.70
29939;DHT22;16799;50.844;5.304;2022-09-03T19:37:26;23.40;92.90
29939;DHT22;16799;50.844;5.304;2022-09-03T19:53:09;23.10;93.60
29939;DHT22;16799;50.844;5.304;2022-09-03T19:56:01;23.10;93.90
29939;DHT22;16799;50.844;5.304;2022-09-03T19:59:01;22.90;94.20
29939;DHT22;16799;50.844;5.304;2022-09-03T20:01:46;22.70;95.00
29939;DHT22;16799;50.844;5.304;2022-09-03T20:04:45;22.60;95.60
29939;DHT22;16799;50.844;5.304;2022-09-03T20:07:31;22.40;96.30
29939;DHT22;16799;50.844;5.304;2022-09-03T20:10:17;22.20;97.10
29939;DHT22;16799;50.844;5.304;2022-09-03T20:13:14;22.00;97.10
29939;DHT22;16799;50.844;5.304;2022-09-03T20:15:46;22.00;97.10
29939;DHT22;16799;50.844;5.304;2022-09-03T20:32:10;22.10;98.20
29939;DHT22;16799;50.844;5.304;2022-09-03T20:42:53;22.00;99.30
29939;DHT22;16799;50.844;5.304;2022-09-03T20:48:14;22.00;99.20
29939;DHT22;16799;50.844;5.304;2022-09-03T20:56:25;22.10;98.70
29939;DHT22;16799;50.844;5.304;2022-09-03T20:59:31;22.10;99.10
29939;DHT22;16799;50.844;5.304;2022-09-03T21:02:16;22.20;99.10
29939;DHT22;16799;50.844;5.304;2022-09-03T21:10:35;21.80;99.90
29939;DHT22;16799;50.844;5.304;2022-09-03T21:18:41;21.60;99.90
29939;DHT22;16799;50.844;5.304;2022-09-03T21:24:10;21.60;99.90
29939;DHT22;16799;50.844;5.304;2022-09-03T21:26:40;21.50;99.90
29939;DHT22;16799;50.844;5.304;2022-09-03T21:29:33;21.50;99.90
29939;DHT22;16799;50.844;5.304;2022-09-03T21:34:43;21.40;99.90
29939;DHT22;16799;50.844;5.304;2022-09-03T21:37:15;21.30;99.90
29939;DHT22;16799;50.844;5.304;2022-09-03T21:39:54;21.30;99.90
29939;DHT22;16799;50.844;5.304;2022-09-03T21:44:59;21.20;99.90
29939;DHT22;16799;50.844;5.304;2022-09-03T21:47:27;21.20;99.90
29939;DHT22;16799;50.844;5.304;2022-09-03T21:50:09;20.90;99.90
29939;DHT22;16799;50.844;5.304;2022-09-03T21:58:51;20.90;99.90
29939;DHT22;16799;50.844;5.304;2022-09-03T22:04:17;20.90;99.90
29939;DHT22;16799;50.844;5.304;2022-09-03T22:06:56;20.90;99.90
29939;DHT22;16799;50.844;5.304;2022-09-03T22:12:15;21.00;99.90
29939;DHT22;16799;50.844;5.304;2022-09-03T22:14:47;21.00;99.90
29939;DHT22;16799;50.844;5.304;2022-09-03T22:17:25;20.90;99.90
29939;DHT22;16799;50.844;5.304;2022-09-03T22:19:53;20.80;99.90
29939;DHT22;16799;50.844;5.304;2022-09-03T22:22:36;20.80;99.90
29939;DHT22;16799;50.844;5.304;2022-09-03T22:25:11;20.80;99.90